Chickamauga, Georgia
Current Conditions -  °F | °C
As of 9:53 AM on Wednesday 26 Nov 2014 (Local Time) from KCHA Reporting Station
Few Clouds Few Clouds  
Wind Chill: 42°   Ceiling: Unl
Heat Index: 45°   Visibility: 10mi
Dew Point: 28°   Wind: 6mph
Humidity: 52%   Direction: 290°WNW
Pressure: 30.12"   Gusts: NA
Location:  34.87°N, 85.29°W
Report Text: KCHA 261453Z 29005KT 10SM FEW250 07/M02 A3012 RMK AO2 SLP201 T00721022 51021
Loading
Personal Weather Stations






























Interactive Weather Map New forecast layout! Learn more

10-Day Weather Forecast

Advertisements
Track Severe Weather on mobile